Time;durP1;ratioP1;P1;durP2;ratioP2;P2;SDS_P1;SDS_P2;PMS_P1;PMS_P2;Temp;Humidity;BMP_temperature;BMP_pressure;BME280_temperature;BME280_humidity;BME280_pressure;Samples;Min_cycle;Max_cycle;Signal;HPM_P1;HPM_P2
2022/05/17 00:00:28;;;;;;;;;;;;;;;11.78;54.69;95971.31;5002263;28;20576;-70
2022/05/17 00:02:53;;;;;;;;;;;;;;;11.77;55.70;95973.13;4999746;28;20544;-70
2022/05/17 00:05:18;;;;;;;;;;;;;;;11.72;55.85;95966.66;5001664;28;20005;-70
2022/05/17 00:07:43;;;;;;;;;;;;;;;11.64;56.22;95964.88;5003594;28;19988;-69
2022/05/17 00:10:09;;;;;;;;;;;;;;;11.59;56.63;95976.06;5004237;28;20150;-70
2022/05/17 00:12:34;;;;;;;;;;;;;;;11.60;56.24;95971.59;4999894;28;20266;-70
2022/05/17 00:15:00;;;;;;;;;;;;;;;11.54;57.08;95977.59;5007297;28;20046;-70
2022/05/17 00:17:25;;;;;;;;;;;;;;;11.70;55.34;95971.34;5006204;28;19979;-70
2022/05/17 00:19:50;;;;;;;;;;;;;;;11.75;54.97;95963.66;5011637;28;20004;-70
2022/05/17 00:22:15;;;;;;;;;;;;;;;11.68;55.15;95973.34;5000865;28;19997;-70
2022/05/17 00:24:41;;;;;;;;;;;;;;;11.67;55.81;95971.69;5000974;28;20348;-70
2022/05/17 00:27:06;;;;;;;;;;;;;;;11.51;55.99;95968.13;5000422;28;20177;-70
2022/05/17 00:29:31;;;;;;;;;;;;;;;11.43;55.74;95968.19;5003507;28;20213;-70
2022/05/17 00:31:56;;;;;;;;;;;;;;;11.40;55.50;95974.69;5003429;28;19977;-70
2022/05/17 00:34:23;;;;;;;;;;;;;;;11.25;56.71;95972.75;5001605;28;20426;-70
2022/05/17 00:36:48;;;;;;;;;;;;;;;11.21;57.15;95968.78;4999163;28;19974;-70
2022/05/17 00:39:13;;;;;;;;;;;;;;;11.22;56.99;95966.94;5002926;28;20024;-70
2022/05/17 00:41:39;;;;;;;;;;;;;;;11.23;57.46;95960.59;5003044;28;20529;-70
2022/05/17 00:46:55;;;;;;;;;;;;;;;11.31;57.96;95973.91;5000890;28;20072;-71
2022/05/17 00:49:25;;;;;;;;;;;;;;;11.48;57.35;95971.13;5013773;28;20119;-71
2022/05/17 00:51:50;;;;;;;;;;;;;;;11.56;56.95;95981.75;5014415;28;19987;-70
2022/05/17 00:54:16;;;;;;;;;;;;;;;11.44;57.03;95977.81;5003557;28;19996;-70
2022/05/17 00:56:42;;;;;;;;;;;;;;;11.50;57.30;95982.47;5003257;28;20298;-71
2022/05/17 00:59:08;;;;;;;;;;;;;;;11.59;56.42;95970.75;5001463;28;19990;-71
2022/05/17 01:01:33;;;;;;;;;;;;;;;11.56;56.26;95984.41;4992694;28;20047;-70
2022/05/17 01:04:01;;;;;;;;;;;;;;;11.77;55.77;95982.97;5007030;28;19969;-70
2022/05/17 01:06:27;;;;;;;;;;;;;;;11.60;55.81;95982.25;5003423;28;20246;-70
2022/05/17 01:08:53;;;;;;;;;;;;;;;11.50;56.20;95979.81;5014671;28;20236;-71
2022/05/17 01:11:18;;;;;;;;;;;;;;;11.55;56.46;95988.09;5006094;28;20289;-70
2022/05/17 01:16:27;;;;;;;;;;;;;;;11.68;55.39;95984.03;5019517;28;20448;-70
2022/05/17 01:18:52;;;;;;;;;;;;;;;11.57;54.99;95980.78;5021261;28;19985;-70
2022/05/17 01:21:18;;;;;;;;;;;;;;;11.63;54.47;95982.72;5021339;28;20509;-70
2022/05/17 01:23:43;;;;;;;;;;;;;;;11.42;55.47;95978.00;5021403;28;19988;-70
2022/05/17 01:26:08;;;;;;;;;;;;;;;11.35;55.71;95980.53;5020402;28;20616;-70
2022/05/17 01:28:35;;;;;;;;;;;;;;;11.27;56.78;95975.25;5019100;28;20354;-70
2022/05/17 01:31:04;;;;;;;;;;;;;;;11.52;55.79;95975.09;5012584;28;20038;-70
2022/05/17 01:33:29;;;;;;;;;;;;;;;11.48;56.43;95973.81;5003083;28;20417;-70
2022/05/17 01:35:55;;;;;;;;;;;;;;;11.52;55.54;95970.63;5001139;28;20008;-71
2022/05/17 01:38:20;;;;;;;;;;;;;;;11.53;55.23;95974.13;5010084;28;20478;-70
2022/05/17 01:40:45;;;;;;;;;;;;;;;11.59;53.76;95964.59;5007283;28;20028;-71
2022/05/17 01:43:10;;;;;;;;;;;;;;;11.73;52.67;95963.81;5002506;28;20402;-71
2022/05/17 01:45:36;;;;;;;;;;;;;;;11.85;51.78;95968.75;5001271;28;19979;-71
2022/05/17 01:48:01;;;;;;;;;;;;;;;11.97;51.02;95961.16;5007099;28;19968;-70
2022/05/17 01:50:26;;;;;;;;;;;;;;;11.97;51.34;95963.84;5009114;28;19984;-71
2022/05/17 01:52:51;;;;;;;;;;;;;;;11.87;52.59;95959.56;5003005;28;20625;-70
2022/05/17 01:55:17;;;;;;;;;;;;;;;11.96;52.72;95965.66;5002323;28;19991;-70
2022/05/17 01:57:42;;;;;;;;;;;;;;;12.03;52.40;95957.78;5012485;28;20197;-71
2022/05/17 02:00:08;;;;;;;;;;;;;;;12.13;51.71;95962.91;5007594;28;19994;-70
2022/05/17 02:02:33;;;;;;;;;;;;;;;12.08;51.83;95966.13;5001736;28;19989;-70
2022/05/17 02:04:58;;;;;;;;;;;;;;;12.12;52.05;95958.56;5004124;28;19992;-71
2022/05/17 02:07:24;;;;;;;;;;;;;;;12.15;52.27;95960.88;5001331;28;20038;-70
2022/05/17 02:09:49;;;;;;;;;;;;;;;12.04;52.78;95967.47;5008503;28;20035;-70
2022/05/17 02:12:14;;;;;;;;;;;;;;;12.00;52.91;95971.50;5003657;28;19965;-70
2022/05/17 02:14:39;;;;;;;;;;;;;;;11.81;52.49;95970.94;5003457;28;19986;-70
2022/05/17 02:17:05;;;;;;;;;;;;;;;11.82;53.23;95969.09;5002190;28;19972;-70
2022/05/17 02:19:30;;;;;;;;;;;;;;;11.81;52.60;95973.63;5002926;28;19996;-69
2022/05/17 02:21:55;;;;;;;;;;;;;;;11.94;51.91;95966.84;5004384;28;20446;-69
2022/05/17 02:24:22;;;;;;;;;;;;;;;12.02;50.51;95966.78;5006707;28;20007;-69
2022/05/17 02:26:47;;;;;;;;;;;;;;;12.07;50.05;95971.63;5001001;28;19993;-69
2022/05/17 02:29:13;;;;;;;;;;;;;;;12.02;49.23;95970.31;5005056;28;20647;-69
2022/05/17 02:31:38;;;;;;;;;;;;;;;12.04;49.76;95972.78;5001816;28;20459;-69
2022/05/17 02:34:03;;;;;;;;;;;;;;;11.94;50.59;95969.53;5001375;28;19988;-69
2022/05/17 02:36:29;;;;;;;;;;;;;;;11.82;51.04;95969.09;5012608;28;19976;-69
2022/05/17 02:38:54;;;;;;;;;;;;;;;11.58;51.93;95974.41;5007138;28;19984;-69
2022/05/17 02:41:20;;;;;;;;;;;;;;;11.52;52.50;95975.09;5004749;28;20063;-69
2022/05/17 02:43:45;;;;;;;;;;;;;;;11.29;52.45;95973.22;5003068;28;20492;-69
2022/05/17 02:46:11;;;;;;;;;;;;;;;11.64;50.35;95980.88;5001974;28;20079;-70
2022/05/17 02:48:36;;;;;;;;;;;;;;;11.62;49.86;95975.72;5004364;28;20327;-70
2022/05/17 02:51:09;;;;;;;;;;;;;;;11.60;50.23;95976.91;5008543;28;20064;-70
2022/05/17 02:53:34;;;;;;;;;;;;;;;11.36;51.62;95984.84;5014095;28;20013;-69
2022/05/17 02:55:59;;;;;;;;;;;;;;;11.35;50.32;95985.03;5006252;28;20171;-69
2022/05/17 02:58:25;;;;;;;;;;;;;;;11.30;50.87;95985.56;5004526;28;20714;-69
2022/05/17 03:00:50;;;;;;;;;;;;;;;11.32;50.42;95988.88;5007512;28;20451;-70
2022/05/17 03:03:15;;;;;;;;;;;;;;;11.31;50.79;95984.56;5009868;28;19982;-69
2022/05/17 03:05:40;;;;;;;;;;;;;;;11.20;51.28;95984.94;5006214;28;19970;-70
2022/05/17 03:08:06;;;;;;;;;;;;;;;11.05;52.26;95996.28;5010588;28;20188;-70
2022/05/17 03:10:31;;;;;;;;;;;;;;;10.85;52.43;95998.53;5004524;28;19985;-70
2022/05/17 03:12:57;;;;;;;;;;;;;;;10.93;52.83;95995.00;5007281;28;20397;-70
2022/05/17 03:15:22;;;;;;;;;;;;;;;10.99;51.68;95996.97;5006712;28;20487;-70
2022/05/17 03:17:47;;;;;;;;;;;;;;;11.05;51.76;95995.47;5008036;28;20072;-69
2022/05/17 03:20:12;;;;;;;;;;;;;;;11.00;51.03;96002.13;5006040;28;19985;-70
2022/05/17 03:22:38;;;;;;;;;;;;;;;11.01;52.05;95997.63;5009702;28;20522;-70
2022/05/17 03:25:03;;;;;;;;;;;;;;;11.17;50.63;95999.44;5013870;28;20376;-70
2022/05/17 03:27:28;;;;;;;;;;;;;;;11.28;49.90;95994.75;5006372;28;19988;-70
2022/05/17 03:29:54;;;;;;;;;;;;;;;11.35;49.16;95998.34;5004959;28;20036;-70
2022/05/17 03:32:19;;;;;;;;;;;;;;;11.36;48.77;95997.38;5008755;28;20291;-70
2022/05/17 03:34:44;;;;;;;;;;;;;;;11.34;48.96;96002.88;5006939;28;19980;-70
2022/05/17 03:37:09;;;;;;;;;;;;;;;11.36;49.83;96000.84;5009235;28;20056;-70
2022/05/17 03:39:35;;;;;;;;;;;;;;;11.38;48.95;96004.19;5008814;28;20210;-70
2022/05/17 03:42:00;;;;;;;;;;;;;;;11.38;48.52;96004.19;5009683;28;19988;-69
2022/05/17 03:44:25;;;;;;;;;;;;;;;11.24;48.67;96000.41;5015387;28;19977;-70
2022/05/17 03:46:50;;;;;;;;;;;;;;;11.27;48.64;96004.56;5011140;28;19981;-70
2022/05/17 03:49:16;;;;;;;;;;;;;;;11.28;48.54;96002.75;5005847;28;20491;-70
2022/05/17 03:51:41;;;;;;;;;;;;;;;11.26;48.39;96008.25;5008849;28;19992;-70
2022/05/17 03:54:07;;;;;;;;;;;;;;;11.24;48.32;96004.91;5005585;28;20027;-70
2022/05/17 03:56:32;;;;;;;;;;;;;;;11.24;47.84;96013.75;5011009;28;20441;-70
2022/05/17 03:58:57;;;;;;;;;;;;;;;11.24;47.93;96026.22;5006306;28;20520;-69
2022/05/17 04:01:22;;;;;;;;;;;;;;;11.23;47.59;96013.91;5010005;28;20677;-70
2022/05/17 04:03:48;;;;;;;;;;;;;;;11.17;47.13;96015.44;5004806;28;19976;-70
2022/05/17 04:06:13;;;;;;;;;;;;;;;11.11;46.72;96027.59;5004323;28;20267;-70
2022/05/17 04:08:38;;;;;;;;;;;;;;;11.07;47.68;96025.41;5009346;28;20052;-70
2022/05/17 04:11:04;;;;;;;;;;;;;;;11.10;47.58;96031.28;5011527;28;20068;-71
2022/05/17 04:13:31;;;;;;;;;;;;;;;11.07;47.29;96025.41;5005395;28;20337;-70
2022/05/17 04:15:59;;;;;;;;;;;;;;;11.04;47.33;96036.41;5005717;28;19989;-70
2022/05/17 04:18:25;;;;;;;;;;;;;;;11.06;47.87;96032.59;5002411;28;20011;-70
2022/05/17 04:20:50;;;;;;;;;;;;;;;11.06;48.14;96029.94;5009775;28;19981;-70
2022/05/17 04:23:15;;;;;;;;;;;;;;;11.05;48.27;96032.75;5005360;28;20424;-70
2022/05/17 04:25:41;;;;;;;;;;;;;;;11.05;47.77;96028.25;5017452;28;20118;-70
2022/05/17 04:28:06;;;;;;;;;;;;;;;11.04;47.94;96034.59;5017227;28;19972;-70
2022/05/17 04:30:31;;;;;;;;;;;;;;;11.10;47.93;96033.09;5013638;28;20000;-70
2022/05/17 04:32:56;;;;;;;;;;;;;;;11.15;47.25;96033.41;5016455;28;19985;-70
2022/05/17 04:35:22;;;;;;;;;;;;;;;11.13;47.20;96033.56;5021856;28;20554;-70
2022/05/17 04:37:47;;;;;;;;;;;;;;;11.13;47.29;96036.25;5008115;28;20450;-71
2022/05/17 04:40:13;;;;;;;;;;;;;;;11.18;47.11;96030.41;5010531;28;20033;-70
2022/05/17 04:42:38;;;;;;;;;;;;;;;11.22;47.09;96037.06;5012347;28;20012;-70
2022/05/17 04:45:04;;;;;;;;;;;;;;;11.29;47.42;96033.72;5021052;28;20363;-70
2022/05/17 04:47:30;;;;;;;;;;;;;;;11.38;47.32;96036.19;5017586;28;20383;-70
2022/05/17 04:49:55;;;;;;;;;;;;;;;11.45;46.91;96038.97;5020597;28;20079;-70
2022/05/17 04:52:21;;;;;;;;;;;;;;;11.54;46.80;96036.25;5011674;28;20000;-70
2022/05/17 04:54:46;;;;;;;;;;;;;;;11.62;46.59;96039.72;5019387;28;20224;-70
2022/05/17 04:57:11;;;;;;;;;;;;;;;11.73;47.07;96041.16;5012887;28;20438;-70
2022/05/17 04:59:37;;;;;;;;;;;;;;;11.87;47.01;96036.91;5017434;28;19999;-70
2022/05/17 05:02:02;;;;;;;;;;;;;;;11.99;46.88;96039.19;5014493;28;19987;-70
2022/05/17 05:04:27;;;;;;;;;;;;;;;12.15;46.52;96043.63;5016138;28;20002;-70
2022/05/17 05:06:53;;;;;;;;;;;;;;;12.28;45.69;96045.72;5016303;28;20093;-70
2022/05/17 05:09:19;;;;;;;;;;;;;;;12.36;46.24;96050.97;5005059;28;19973;-70
2022/05/17 05:11:44;;;;;;;;;;;;;;;12.49;46.21;96049.53;5016394;28;20406;-70
2022/05/17 05:14:10;;;;;;;;;;;;;;;12.60;45.79;96050.94;5012185;28;20320;-70
2022/05/17 05:16:38;;;;;;;;;;;;;;;12.74;45.01;96055.50;5013189;28;19966;-70
2022/05/17 05:19:03;;;;;;;;;;;;;;;12.92;45.27;96055.16;5017095;28;20515;-70
2022/05/17 05:21:29;;;;;;;;;;;;;;;13.06;45.37;96060.75;5014330;28;19969;-70
2022/05/17 05:23:54;;;;;;;;;;;;;;;13.21;44.66;96062.59;5016197;28;19970;-70
2022/05/17 05:26:20;;;;;;;;;;;;;;;13.38;44.45;96057.88;5015986;28;19989;-70
2022/05/17 05:28:45;;;;;;;;;;;;;;;13.55;44.15;96066.53;5018942;28;20497;-70
2022/05/17 05:31:12;;;;;;;;;;;;;;;13.69;44.14;96068.38;5018077;28;20502;-70
2022/05/17 05:33:39;;;;;;;;;;;;;;;13.87;45.34;96072.47;5012025;28;20024;-70
2022/05/17 05:36:04;;;;;;;;;;;;;;;14.08;43.66;96068.25;5019238;28;19969;-70
2022/05/17 05:38:29;;;;;;;;;;;;;;;14.28;44.25;96075.66;5002625;28;19990;-70
2022/05/17 05:40:55;;;;;;;;;;;;;;;14.45;43.72;96069.00;5012823;28;20024;-70
2022/05/17 05:43:21;;;;;;;;;;;;;;;14.66;43.34;96072.72;5014250;28;19977;-70
2022/05/17 05:45:46;;;;;;;;;;;;;;;14.83;40.56;96078.63;5007708;28;20267;-70
2022/05/17 05:48:11;;;;;;;;;;;;;;;14.70;40.60;96073.97;5004581;28;20239;-70
2022/05/17 05:50:36;;;;;;;;;;;;;;;14.83;39.83;96073.25;5018533;28;20061;-70
2022/05/17 05:53:04;;;;;;;;;;;;;;;15.05;39.19;96069.72;5016929;28;20004;-70
2022/05/17 05:55:30;;;;;;;;;;;;;;;15.27;39.22;96064.28;5020768;28;20518;-70
2022/05/17 05:57:55;;;;;;;;;;;;;;;15.50;38.50;96066.69;5013583;28;20067;-70
2022/05/17 06:00:20;;;;;;;;;;;;;;;15.72;38.63;96066.63;5020907;28;20425;-70
2022/05/17 06:02:46;;;;;;;;;;;;;;;15.92;37.94;96058.66;5006529;28;20195;-70
2022/05/17 06:05:11;;;;;;;;;;;;;;;16.11;38.32;96069.63;5015383;28;20016;-70
2022/05/17 06:07:36;;;;;;;;;;;;;;;16.32;37.75;96065.16;5017110;28;20074;-70
2022/05/17 06:10:05;;;;;;;;;;;;;;;16.49;38.42;96071.81;5008288;28;20007;-70
2022/05/17 06:12:30;;;;;;;;;;;;;;;16.70;38.22;96069.16;5020210;28;19953;-70
2022/05/17 06:14:55;;;;;;;;;;;;;;;16.85;37.65;96077.00;5018167;28;19980;-70
2022/05/17 06:17:27;;;;;;;;;;;;;;;17.03;37.67;96077.19;5021065;28;20022;-70
2022/05/17 06:19:52;;;;;;;;;;;;;;;17.21;38.05;96077.63;5017788;28;19989;-70
2022/05/17 06:22:17;;;;;;;;;;;;;;;17.39;37.81;96080.50;5012964;28;19978;-70
2022/05/17 06:24:42;;;;;;;;;;;;;;;17.47;37.16;96075.94;5016049;28;19960;-71
2022/05/17 06:27:08;;;;;;;;;;;;;;;17.60;36.50;96080.41;5016099;28;20131;-70
2022/05/17 06:29:33;;;;;;;;;;;;;;;17.79;36.39;96087.59;5016382;28;19975;-70
2022/05/17 06:31:58;;;;;;;;;;;;;;;17.96;38.35;96087.19;5022375;28;19955;-70
2022/05/17 06:34:23;;;;;;;;;;;;;;;17.94;38.95;96085.75;5021124;28;19975;-70
2022/05/17 06:36:49;;;;;;;;;;;;;;;18.11;39.37;96080.66;5020867;28;20029;-70
2022/05/17 06:39:14;;;;;;;;;;;;;;;18.28;37.28;96081.81;5018869;28;20463;-70
2022/05/17 06:41:39;;;;;;;;;;;;;;;18.51;36.93;96085.00;5010984;28;19945;-70
2022/05/17 06:44:06;;;;;;;;;;;;;;;18.51;35.64;96085.00;5017068;28;19992;-70
2022/05/17 06:46:32;;;;;;;;;;;;;;;18.75;35.14;96091.50;5017663;28;19980;-70
2022/05/17 06:48:57;;;;;;;;;;;;;;;18.97;34.39;96085.72;5013712;28;19979;-70
2022/05/17 06:51:22;;;;;;;;;;;;;;;18.82;38.00;96089.59;5019758;28;20331;-70
2022/05/17 06:53:48;;;;;;;;;;;;;;;18.91;37.46;96095.53;5017193;28;19964;-70
2022/05/17 06:56:13;;;;;;;;;;;;;;;19.18;35.76;96099.88;5014816;28;19940;-70
2022/05/17 06:58:38;;;;;;;;;;;;;;;19.38;35.52;96102.38;5005338;28;20006;-70
2022/05/17 07:01:03;;;;;;;;;;;;;;;19.08;37.14;96103.88;5016547;28;19992;-70
2022/05/17 07:03:29;;;;;;;;;;;;;;;18.61;39.04;96106.13;5018144;28;20317;-70
2022/05/17 07:05:54;;;;;;;;;;;;;;;18.22;39.03;96103.41;5015847;28;19968;-70
2022/05/17 07:08:19;;;;;;;;;;;;;;;18.89;38.12;96107.56;5014723;28;19938;-70
2022/05/17 07:13:28;;;;;;;;;;;;;;;18.81;37.67;96106.81;5017123;28;19994;-70
2022/05/17 07:15:53;;;;;;;;;;;;;;;19.23;37.27;96105.41;5019717;28;20432;-70
2022/05/17 07:18:22;;;;;;;;;;;;;;;19.35;35.51;96100.16;5017341;28;20010;-70
2022/05/17 07:20:47;;;;;;;;;;;;;;;19.55;34.49;96109.94;5014530;28;19962;-70
2022/05/17 07:23:12;;;;;;;;;;;;;;;19.83;32.39;96101.31;5005627;28;19966;-70
2022/05/17 07:25:40;;;;;;;;;;;;;;;19.99;33.00;96109.88;5007690;28;19945;-70
2022/05/17 07:28:06;;;;;;;;;;;;;;;20.01;32.00;96110.47;5011494;28;20453;-70
2022/05/17 07:30:31;;;;;;;;;;;;;;;19.59;32.12;96117.34;5014128;28;20349;-70
2022/05/17 07:32:57;;;;;;;;;;;;;;;18.71;34.90;96121.81;5018650;28;20468;-70
2022/05/17 07:35:22;;;;;;;;;;;;;;;19.59;32.25;96121.94;5006430;28;19966;-70
2022/05/17 07:37:48;;;;;;;;;;;;;;;19.40;32.98;96123.75;5003017;28;20948;-70
2022/05/17 07:40:13;;;;;;;;;;;;;;;19.56;32.14;96120.50;5014074;28;20096;-69
2022/05/17 07:42:41;;;;;;;;;;;;;;;19.26;33.14;96114.94;5012481;28;20447;-69
2022/05/17 07:45:07;;;;;;;;;;;;;;;19.68;31.20;96125.97;5013716;28;19943;-69
2022/05/17 07:47:33;;;;;;;;;;;;;;;19.65;31.33;96123.72;5012657;28;20275;-70
2022/05/17 07:49:59;;;;;;;;;;;;;;;18.84;32.17;96127.13;5014946;28;20075;-70
2022/05/17 07:52:24;;;;;;;;;;;;;;;19.02;32.97;96126.34;5013872;28;19953;-70
2022/05/17 07:54:49;;;;;;;;;;;;;;;18.76;34.12;96122.81;5016922;28;20155;-69
2022/05/17 07:57:14;;;;;;;;;;;;;;;19.01;32.66;96126.56;5017193;28;20427;-69
2022/05/17 07:59:41;;;;;;;;;;;;;;;18.83;32.73;96128.16;5015210;28;20549;-70
2022/05/17 08:02:06;;;;;;;;;;;;;;;19.19;33.09;96125.78;5008329;28;19971;-70
2022/05/17 08:04:31;;;;;;;;;;;;;;;19.16;33.82;96120.84;5007618;28;19959;-70
2022/05/17 08:06:57;;;;;;;;;;;;;;;19.28;30.82;96127.19;5015784;28;20711;-70
2022/05/17 08:09:23;;;;;;;;;;;;;;;19.57;30.73;96124.84;5011578;28;20299;-70
2022/05/17 08:11:49;;;;;;;;;;;;;;;19.74;31.90;96128.84;5015245;28;20004;-69
2022/05/17 08:14:15;;;;;;;;;;;;;;;20.05;31.24;96129.75;5017540;28;20013;-70
2022/05/17 08:16:42;;;;;;;;;;;;;;;20.25;31.16;96129.50;5015181;28;20004;-70
2022/05/17 08:19:07;;;;;;;;;;;;;;;20.39;30.13;96127.44;5017303;28;20185;-70
2022/05/17 08:21:33;;;;;;;;;;;;;;;20.28;32.57;96131.75;5016427;28;20001;-69
2022/05/17 08:23:58;;;;;;;;;;;;;;;20.20;32.47;96132.88;5015811;28;19953;-69
2022/05/17 08:29:09;;;;;;;;;;;;;;;20.78;30.56;96131.72;5012472;28;19978;-69
2022/05/17 08:31:34;;;;;;;;;;;;;;;20.92;30.53;96133.16;5001275;28;20071;-69
2022/05/17 08:34:00;;;;;;;;;;;;;;;20.76;30.61;96134.66;5008192;28;20021;-70
2022/05/17 08:36:25;;;;;;;;;;;;;;;21.09;29.51;96130.59;5009608;28;20000;-70
2022/05/17 08:38:50;;;;;;;;;;;;;;;21.02;30.09;96127.19;5004951;28;20324;-69
2022/05/17 08:41:25;;;;;;;;;;;;;;;21.16;29.27;96133.19;5010851;28;20183;-70
2022/05/17 08:43:54;;;;;;;;;;;;;;;20.65;30.54;96138.13;5009928;28;19970;-70
2022/05/17 08:46:37;;;;;;;;;;;;;;;21.45;30.35;96136.03;5013630;28;20022;-70
2022/05/17 08:49:05;;;;;;;;;;;;;;;22.24;28.98;96133.97;5016219;28;19937;-70
2022/05/17 08:51:31;;;;;;;;;;;;;;;22.35;31.16;96131.44;5010468;28;20409;-70
2022/05/17 08:53:56;;;;;;;;;;;;;;;21.99;29.63;96136.97;5008074;28;19957;-70
2022/05/17 08:56:21;;;;;;;;;;;;;;;21.54;31.09;96141.94;5009321;28;19926;-70
2022/05/17 08:58:47;;;;;;;;;;;;;;;21.62;29.15;96136.16;5005952;28;19966;-70
2022/05/17 09:01:32;;;;;;;;;;;;;;;21.72;30.40;96135.56;5017087;28;20308;-70
2022/05/17 09:04:16;;;;;;;;;;;;;;;21.84;29.88;96148.28;5015290;28;20199;-70
2022/05/17 09:06:46;;;;;;;;;;;;;;;22.40;28.96;96140.50;5015623;28;19967;-70
2022/05/17 09:09:12;;;;;;;;;;;;;;;22.17;29.79;96143.28;5005395;28;19939;-70
2022/05/17 09:11:37;;;;;;;;;;;;;;;22.00;29.78;96144.03;5010029;28;19985;-70
2022/05/17 09:14:06;;;;;;;;;;;;;;;22.10;29.59;96148.84;5010877;28;19963;-70
2022/05/17 09:16:32;;;;;;;;;;;;;;;21.63;30.01;96143.25;5015810;28;20433;-70
2022/05/17 09:18:57;;;;;;;;;;;;;;;22.07;29.36;96136.59;5015340;28;19962;-70
2022/05/17 09:21:25;;;;;;;;;;;;;;;22.30;28.65;96140.31;5013701;28;19955;-70
2022/05/17 09:23:51;;;;;;;;;;;;;;;21.88;28.81;96138.59;5016984;28;20021;-70
2022/05/17 09:26:17;;;;;;;;;;;;;;;22.62;28.85;96130.88;5000014;28;20273;-70
2022/05/17 09:28:42;;;;;;;;;;;;;;;23.30;28.42;96120.09;5015779;28;19935;-70
2022/05/17 09:31:23;;;;;;;;;;;;;;;23.55;29.14;96120.69;5003937;28;20424;-70
2022/05/17 09:33:48;;;;;;;;;;;;;;;23.57;29.02;96124.00;5010203;28;20023;-70
2022/05/17 09:36:24;;;;;;;;;;;;;;;22.95;30.28;96125.75;5006263;28;20040;-69
2022/05/17 09:38:50;;;;;;;;;;;;;;;23.32;30.80;96130.72;5006742;28;20273;-70
2022/05/17 09:41:17;;;;;;;;;;;;;;;23.87;26.40;96130.13;5007059;28;20162;-70
2022/05/17 09:43:45;;;;;;;;;;;;;;;23.81;26.49;96132.78;5008313;28;19967;-70
2022/05/17 09:46:13;;;;;;;;;;;;;;;24.02;27.08;96133.06;5015458;28;19953;-68
2022/05/17 09:54:31;;;;;;;;;;;;;;;23.52;27.13;96129.38;5009229;28;20047;-70
2022/05/17 09:57:26;;;;;;;;;;;;;;;24.27;26.53;96130.91;5015814;28;20236;-71
2022/05/17 09:59:56;;;;;;;;;;;;;;;24.29;27.20;96131.44;4998471;28;20393;-71
2022/05/17 10:02:30;;;;;;;;;;;;;;;24.22;27.37;96134.38;5013931;28;19976;-71
2022/05/17 10:05:09;;;;;;;;;;;;;;;24.64;26.10;96129.41;5016585;28;20067;-71
2022/05/17 10:07:34;;;;;;;;;;;;;;;24.74;26.14;96132.22;5017399;28;19963;-71
2022/05/17 10:10:04;;;;;;;;;;;;;;;25.03;25.45;96128.41;5012064;28;20198;-71
2022/05/17 10:12:33;;;;;;;;;;;;;;;25.03;26.37;96126.53;5014169;28;19955;-70
2022/05/17 10:15:03;;;;;;;;;;;;;;;25.30;27.21;96130.25;5008326;28;20703;-70
2022/05/17 10:17:36;;;;;;;;;;;;;;;26.13;24.88;96127.25;5016561;28;19963;-70
2022/05/17 10:20:02;;;;;;;;;;;;;;;25.89;24.12;96125.72;5011350;28;19928;-71
2022/05/17 10:22:40;;;;;;;;;;;;;;;24.50;27.00;96129.00;5012302;28;20237;-71
2022/05/17 10:25:15;;;;;;;;;;;;;;;25.82;24.11;96127.88;5017321;28;20041;-71
2022/05/17 10:27:41;;;;;;;;;;;;;;;25.83;24.76;96119.44;5014273;28;19976;-70
2022/05/17 10:30:07;;;;;;;;;;;;;;;25.89;24.62;96114.81;5015997;28;19935;-71
2022/05/17 10:32:35;;;;;;;;;;;;;;;25.53;25.29;96111.91;5012568;28;19921;-71
2022/05/17 10:35:09;;;;;;;;;;;;;;;26.10;24.07;96109.47;5006800;28;20319;-71
2022/05/17 10:37:38;;;;;;;;;;;;;;;22.76;27.98;96115.94;5032459;28;20393;-69
2022/05/17 10:40:08;;;;;;;;;;;;;;;24.50;26.45;96109.97;5016754;28;19921;-70
2022/05/17 10:42:33;;;;;;;;;;;;;;;23.52;27.40;96110.34;5013868;28;19933;-70
2022/05/17 10:44:58;;;;;;;;;;;;;;;22.81;28.56;96111.66;5002659;28;19922;-70
2022/05/17 10:47:43;;;;;;;;;;;;;;;22.72;29.28;96112.06;5014074;28;19960;-71
2022/05/17 10:50:08;;;;;;;;;;;;;;;24.83;25.72;96108.06;5019387;28;19940;-70
2022/05/17 10:52:52;;;;;;;;;;;;;;;25.12;26.41;96107.78;5016421;28;19954;-70
2022/05/17 10:55:20;;;;;;;;;;;;;;;25.41;26.05;96107.47;5011634;28;19933;-70
2022/05/17 10:57:59;;;;;;;;;;;;;;;25.22;25.54;96113.31;5018989;28;20121;-70
2022/05/17 11:00:31;;;;;;;;;;;;;;;25.03;27.53;96107.47;5018313;28;20121;-71
2022/05/17 11:03:15;;;;;;;;;;;;;;;25.14;25.48;96107.53;5018031;28;19951;-70
2022/05/17 11:05:59;;;;;;;;;;;;;;;25.43;24.80;96099.81;5012405;28;19972;-70
2022/05/17 11:08:33;;;;;;;;;;;;;;;25.13;25.29;96103.16;5013264;28;20228;-70
2022/05/17 11:11:17;;;;;;;;;;;;;;;24.28;25.99;96100.72;5013084;28;19932;-70
2022/05/17 11:13:56;;;;;;;;;;;;;;;24.07;26.35;96092.31;5017344;28;20179;-70
2022/05/17 11:16:22;;;;;;;;;;;;;;;23.24;28.26;96099.34;5006759;28;19913;-70
2022/05/17 11:18:53;;;;;;;;;;;;;;;23.77;25.63;96092.78;5015074;28;19987;-70
2022/05/17 11:21:20;;;;;;;;;;;;;;;24.18;25.80;96097.88;5015736;28;20753;-68
2022/05/17 11:24:15;;;;;;;;;;;;;;;24.16;25.61;96092.69;5017664;28;19951;-69
2022/05/17 11:26:40;;;;;;;;;;;;;;;24.60;26.95;96091.00;5005558;28;20463;-69
2022/05/17 11:29:11;;;;;;;;;;;;;;;25.08;26.10;96093.06;5015206;28;20260;-71
2022/05/17 11:31:39;;;;;;;;;;;;;;;25.04;27.78;96095.47;5010171;28;19971;-71
2022/05/17 11:34:23;;;;;;;;;;;;;;;25.29;26.52;96094.00;5013696;28;20163;-69
2022/05/17 11:36:49;;;;;;;;;;;;;;;25.24;26.43;96095.88;5018265;28;19921;-72
2022/05/17 11:39:41;;;;;;;;;;;;;;;24.55;26.10;96089.06;5019410;28;19963;-69
2022/05/17 11:42:06;;;;;;;;;;;;;;;24.23;27.85;96091.69;5013118;28;19932;-71
2022/05/17 11:44:42;;;;;;;;;;;;;;;24.13;27.86;96092.41;5014912;28;19968;-71
2022/05/17 11:47:22;;;;;;;;;;;;;;;23.81;27.64;96088.47;5016453;28;19961;-68
2022/05/17 11:49:48;;;;;;;;;;;;;;;24.00;28.07;96085.44;5012859;28;19956;-70
2022/05/17 11:52:15;;;;;;;;;;;;;;;24.14;27.14;96075.00;5014609;28;19927;-72
2022/05/17 11:54:47;;;;;;;;;;;;;;;24.43;27.04;96083.75;5017680;28;20491;-71
2022/05/17 11:57:33;;;;;;;;;;;;;;;24.63;26.99;96090.47;5005031;28;19921;-71
2022/05/17 12:00:01;;;;;;;;;;;;;;;25.06;26.03;96079.72;4999570;28;19933;-71
2022/05/17 12:02:44;;;;;;;;;;;;;;;25.27;25.93;96079.84;5017143;28;19978;-69
2022/05/17 12:05:10;;;;;;;;;;;;;;;25.57;25.30;96080.31;5017944;28;19975;-68
2022/05/17 12:07:36;;;;;;;;;;;;;;;25.75;25.23;96080.94;5006375;28;20152;-70
2022/05/17 12:10:12;;;;;;;;;;;;;;;25.90;25.15;96077.47;5012657;28;20345;-70
2022/05/17 12:13:04;;;;;;;;;;;;;;;25.61;25.38;96078.72;5017546;28;19924;-71
2022/05/17 12:15:44;;;;;;;;;;;;;;;26.22;24.64;96063.72;5006836;28;19924;-71
2022/05/17 12:18:12;;;;;;;;;;;;;;;26.59;25.08;96078.28;5008609;28;19929;-71
2022/05/17 12:21:00;;;;;;;;;;;;;;;26.21;24.88;96075.69;5010969;28;19979;-70
2022/05/17 12:23:34;;;;;;;;;;;;;;;26.10;24.59;96069.41;5000010;28;19925;-70
2022/05/17 12:26:09;;;;;;;;;;;;;;;26.41;23.91;96076.03;5008618;28;19991;-70
2022/05/17 12:28:49;;;;;;;;;;;;;;;27.06;24.33;96066.53;5013467;28;19928;-68
2022/05/17 12:31:28;;;;;;;;;;;;;;;27.20;23.70;96064.91;5010689;28;19932;-70
2022/05/17 12:33:53;;;;;;;;;;;;;;;27.52;22.85;96063.72;5013742;28;19924;-67
2022/05/17 12:36:23;;;;;;;;;;;;;;;27.54;22.28;96051.69;5026125;28;19936;-67
2022/05/17 12:44:26;;;;;;;;;;;;;;;26.49;25.47;96054.47;5008497;28;20338;-71
2022/05/17 12:46:53;;;;;;;;;;;;;;;27.86;22.65;96053.25;5012041;28;19929;-71
2022/05/17 12:49:19;;;;;;;;;;;;;;;27.08;23.34;96051.50;5012187;28;19972;-71
2022/05/17 12:51:46;;;;;;;;;;;;;;;25.64;25.68;96059.09;5025028;28;19929;-71
2022/05/17 12:54:13;;;;;;;;;;;;;;;26.30;24.17;96054.16;5011294;28;19983;-71
2022/05/17 12:56:39;;;;;;;;;;;;;;;27.52;23.72;96046.50;5014962;28;19975;-71
2022/05/17 12:59:05;;;;;;;;;;;;;;;27.42;22.81;96047.34;5013745;28;19933;-71
2022/05/17 13:01:32;;;;;;;;;;;;;;;26.53;23.08;96056.66;5006842;28;19929;-71
2022/05/17 13:03:58;;;;;;;;;;;;;;;26.48;23.33;96049.28;5015908;28;19932;-71
2022/05/17 13:06:40;;;;;;;;;;;;;;;27.78;21.79;96041.78;5009315;28;20383;-71
2022/05/17 13:09:06;;;;;;;;;;;;;;;28.01;21.88;96044.16;5011206;28;20588;-71
2022/05/17 13:11:31;;;;;;;;;;;;;;;28.73;21.20;96042.94;5010662;28;19936;-70